createdAt,value
2023-03-26T00:03:21.332Z,92.00
2023-03-26T00:07:48.101Z,91.50
2023-03-26T00:12:15.825Z,91.40
2023-03-26T00:16:44.138Z,91.30
2023-03-26T00:21:09.930Z,91.50
2023-03-26T00:25:35.249Z,92.10
2023-03-26T00:30:01.103Z,92.60
2023-03-26T00:34:28.897Z,93.00
2023-03-26T00:38:55.556Z,93.50
2023-03-26T00:43:21.788Z,93.80
2023-03-26T00:47:46.852Z,94.30
2023-03-26T00:52:14.459Z,94.60
2023-03-26T00:56:40.163Z,94.90
2023-03-26T01:01:08.341Z,95.10
2023-03-26T01:05:53.020Z,95.50
2023-03-26T01:10:22.761Z,95.60
2023-03-26T01:14:50.610Z,96.10
2023-03-26T01:19:24.878Z,96.50
2023-03-26T01:24:00.257Z,96.80
2023-03-26T01:28:29.944Z,96.90
2023-03-26T01:33:07.894Z,96.80
2023-03-26T01:37:43.633Z,96.90
2023-03-26T01:42:16.630Z,96.90
2023-03-26T01:46:44.418Z,96.90
2023-03-26T01:51:11.801Z,96.90
2023-03-26T01:55:50.737Z,96.80
2023-03-26T02:00:24.493Z,96.60
2023-03-26T02:04:54.594Z,96.60
2023-03-26T02:09:26.676Z,96.40
2023-03-26T02:13:53.294Z,96.30
2023-03-26T02:18:24.381Z,96.30
2023-03-26T02:22:49.730Z,96.00
2023-03-26T02:27:18.573Z,96.00
2023-03-26T02:31:44.361Z,96.50
2023-03-26T02:36:14.302Z,96.80
2023-03-26T02:40:41.459Z,97.00
2023-03-26T02:45:09.137Z,97.10
2023-03-26T02:49:52.955Z,97.30
2023-03-26T02:54:37.185Z,97.90
2023-03-26T02:59:22.335Z,98.40
2023-03-26T03:04:01.702Z,98.90
2023-03-26T03:08:34.352Z,99.40
2023-03-26T03:13:17.074Z,99.90
2023-03-26T03:17:42.066Z,99.90
2023-03-26T03:22:07.728Z,99.90
2023-03-26T03:26:34.546Z,99.90
2023-03-26T03:31:18.878Z,99.90
2023-03-26T03:35:46.107Z,99.90
2023-03-26T03:40:12.365Z,99.90
2023-03-26T03:44:37.995Z,99.90
2023-03-26T03:49:12.619Z,99.90
2023-03-26T03:53:40.763Z,99.90
2023-03-26T03:58:09.570Z,99.90
2023-03-26T04:02:35.764Z,99.90
2023-03-26T04:07:05.506Z,99.90
2023-03-26T04:11:58.992Z,99.90
2023-03-26T04:16:44.200Z,99.90
2023-03-26T04:21:09.215Z,99.90
2023-03-26T04:25:36.827Z,99.90
2023-03-26T04:30:12.784Z,99.90
2023-03-26T04:34:37.307Z,99.90
2023-03-26T04:39:13.492Z,99.90
2023-03-26T04:43:57.872Z,99.90
2023-03-26T04:48:34.736Z,99.90
2023-03-26T04:52:59.526Z,99.90
2023-03-26T04:57:47.194Z,99.90
2023-03-26T05:02:34.701Z,99.90
2023-03-26T05:07:01.493Z,99.90
2023-03-26T05:11:38.462Z,99.90
2023-03-26T05:16:04.786Z,99.90
2023-03-26T05:20:41.284Z,99.90
2023-03-26T05:25:10.547Z,99.90
2023-03-26T05:29:37.172Z,99.90
2023-03-26T05:34:03.770Z,99.90
2023-03-26T05:38:31.140Z,99.80
2023-03-26T05:42:58.093Z,99.40
2023-03-26T05:47:36.592Z,99.70
2023-03-26T05:52:02.498Z,99.90
2023-03-26T05:56:57.028Z,98.50
2023-03-26T06:01:43.188Z,91.60
2023-03-26T06:06:16.829Z,85.50
2023-03-26T06:10:52.004Z,84.60
2023-03-26T06:15:18.848Z,85.40
2023-03-26T06:19:58.708Z,86.80
2023-03-26T06:24:35.505Z,88.30
2023-03-26T06:29:21.156Z,89.80
2023-03-26T06:34:08.898Z,90.70
2023-03-26T06:38:35.415Z,91.00
2023-03-26T06:43:07.990Z,91.50
2023-03-26T06:48:10.830Z,91.70
2023-03-26T06:52:58.922Z,92.10
2023-03-26T06:57:55.220Z,92.60
2023-03-26T07:02:47.789Z,92.50
2023-03-26T07:07:32.958Z,92.40
2023-03-26T07:12:24.628Z,92.50
2023-03-26T07:16:49.156Z,92.30
2023-03-26T07:21:38.309Z,91.90
2023-03-26T07:26:32.680Z,91.50
2023-03-26T07:31:28.289Z,91.20
2023-03-26T07:36:25.815Z,90.80
2023-03-26T07:41:19.194Z,90.30
2023-03-26T07:46:36.692Z,89.70
2023-03-26T07:51:36.538Z,86.00
2023-03-26T07:56:21.484Z,83.40
2023-03-26T08:01:17.904Z,82.60
2023-03-26T08:05:56.783Z,83.00
2023-03-26T08:11:03.394Z,82.30
2023-03-26T08:15:44.906Z,80.50
2023-03-26T08:20:21.237Z,78.10
2023-03-26T08:25:02.013Z,77.70
2023-03-26T08:29:34.544Z,77.50
2023-03-26T08:33:59.474Z,77.90
2023-03-26T08:38:28.083Z,76.00
2023-03-26T08:43:21.504Z,74.20
2023-03-26T08:48:29.350Z,74.30
2023-03-26T08:53:40.046Z,73.90
2023-03-26T08:58:52.265Z,73.10
2023-03-26T09:03:48.249Z,73.20
2023-03-26T09:09:05.275Z,73.20
2023-03-26T09:14:06.982Z,72.70
2023-03-26T09:19:12.584Z,71.80
2023-03-26T09:24:10.461Z,70.30
2023-03-26T09:29:17.048Z,70.10
2023-03-26T09:34:14.243Z,67.60
2023-03-26T09:38:49.142Z,63.80
2023-03-26T09:43:54.160Z,61.80
2023-03-26T09:48:36.330Z,62.20
2023-03-26T09:53:14.245Z,62.10
2023-03-26T09:58:01.277Z,60.10
2023-03-26T10:02:58.671Z,58.80
2023-03-26T10:07:57.401Z,58.50
2023-03-26T10:12:37.101Z,57.80
2023-03-26T10:17:11.612Z,59.10
2023-03-26T10:21:44.561Z,60.20
2023-03-26T10:26:40.754Z,59.20
2023-03-26T10:31:36.985Z,56.30
2023-03-26T10:36:34.135Z,52.10
2023-03-26T10:41:12.615Z,50.20
2023-03-26T10:45:55.923Z,49.00
2023-03-26T10:50:56.684Z,47.40
2023-03-26T10:55:30.280Z,48.00
2023-03-26T11:00:00.627Z,49.60
2023-03-26T11:04:40.019Z,50.50
2023-03-26T11:09:22.918Z,51.80
2023-03-26T11:13:56.540Z,52.70
2023-03-26T11:18:31.692Z,54.00
2023-03-26T11:23:10.125Z,54.80
2023-03-26T11:27:57.233Z,54.60
2023-03-26T11:32:26.221Z,54.40
2023-03-26T11:36:59.660Z,54.30
2023-03-26T11:41:27.366Z,54.00
2023-03-26T11:46:13.256Z,54.20
2023-03-26T11:50:49.133Z,54.70
2023-03-26T11:55:15.934Z,54.40
2023-03-26T11:59:56.605Z,54.70
2023-03-26T12:04:37.198Z,55.00
2023-03-26T12:09:05.161Z,54.50
2023-03-26T12:13:35.717Z,54.90
2023-03-26T12:18:25.054Z,55.70
2023-03-26T12:22:54.785Z,56.60
2023-03-26T12:27:29.299Z,57.60
2023-03-26T12:32:04.607Z,58.00
2023-03-26T12:36:37.195Z,58.40
2023-03-26T12:44:44.260Z,58.20
2023-03-26T12:47:54.443Z,58.40
2023-03-26T12:50:59.789Z,58.30
2023-03-26T12:55:42.348Z,59.60
2023-03-26T13:00:40.846Z,61.90
2023-03-26T13:05:35.993Z,64.20
2023-03-26T13:10:35.069Z,66.30
2023-03-26T13:15:22.053Z,68.70
2023-03-26T13:19:57.715Z,70.90
2023-03-26T13:24:42.458Z,73.30
2023-03-26T13:29:09.489Z,75.40
2023-03-26T13:33:50.714Z,77.60
2023-03-26T13:38:26.219Z,79.90
2023-03-26T13:42:56.961Z,80.10
2023-03-26T13:47:22.342Z,79.30
2023-03-26T13:51:55.365Z,79.90
2023-03-26T13:56:25.068Z,80.30
2023-03-26T14:00:57.407Z,79.60
2023-03-26T14:05:22.529Z,78.90
2023-03-26T14:09:51.661Z,78.10
2023-03-26T14:14:20.131Z,77.50
2023-03-26T14:18:49.899Z,77.60
2023-03-26T14:23:36.949Z,77.30
2023-03-26T14:28:20.093Z,77.40
2023-03-26T14:33:06.169Z,77.70
2023-03-26T14:37:55.629Z,77.80
2023-03-26T14:42:26.535Z,77.70
2023-03-26T14:47:17.515Z,77.90
2023-03-26T14:52:12.490Z,78.20
2023-03-26T14:57:01.192Z,79.10
2023-03-26T15:01:28.920Z,80.70
2023-03-26T15:06:24.081Z,82.80
2023-03-26T15:11:02.905Z,85.10
2023-03-26T15:16:00.363Z,88.10
2023-03-26T15:20:50.594Z,90.30
2023-03-26T15:25:35.893Z,91.40
2023-03-26T15:30:40.525Z,92.30
2023-03-26T15:35:44.530Z,93.10
2023-03-26T15:40:29.353Z,94.10
2023-03-26T15:45:08.311Z,95.10
2023-03-26T15:49:43.061Z,95.90
2023-03-26T15:54:10.217Z,96.50
2023-03-26T15:58:40.106Z,97.20
2023-03-26T16:03:22.978Z,97.80
2023-03-26T16:08:03.548Z,98.10
2023-03-26T16:12:39.637Z,98.40
2023-03-26T16:17:03.960Z,98.80
2023-03-26T16:21:57.614Z,99.30
2023-03-26T16:26:32.018Z,99.90
2023-03-26T16:31:38.869Z,99.90
2023-03-26T16:36:19.498Z,99.90
2023-03-26T16:41:03.264Z,99.90
2023-03-26T16:45:30.810Z,99.90
2023-03-26T16:50:08.116Z,99.90
2023-03-26T16:54:46.611Z,99.90
2023-03-26T16:59:18.398Z,99.90
2023-03-26T17:03:46.178Z,99.90
2023-03-26T17:08:14.331Z,99.90
2023-03-26T17:12:46.072Z,99.90
2023-03-26T17:17:25.923Z,99.90
2023-03-26T17:22:07.903Z,99.90
2023-03-26T17:26:35.214Z,99.90
2023-03-26T17:31:09.365Z,99.90
2023-03-26T17:35:43.999Z,99.90
2023-03-26T17:40:52.029Z,99.90
2023-03-26T17:45:18.592Z,99.90
2023-03-26T17:49:49.685Z,99.90
2023-03-26T17:54:26.477Z,99.90
2023-03-26T17:58:50.295Z,99.90
2023-03-26T18:03:19.518Z,99.90
2023-03-26T18:08:28.429Z,99.90
2023-03-26T18:13:07.468Z,99.90
2023-03-26T18:17:28.895Z,99.90
2023-03-26T18:21:52.139Z,99.90
2023-03-26T18:26:18.457Z,99.90
2023-03-26T18:30:49.115Z,99.90
2023-03-26T18:35:21.087Z,99.90
2023-03-26T18:39:40.399Z,99.90
2023-03-26T18:44:07.972Z,99.90
2023-03-26T18:48:31.087Z,99.90
2023-03-26T18:52:52.043Z,99.90
2023-03-26T18:57:15.389Z,99.90
2023-03-26T19:01:38.781Z,99.90
2023-03-26T19:06:04.725Z,99.90
2023-03-26T19:10:28.507Z,99.90
2023-03-26T19:14:58.091Z,99.90
2023-03-26T19:19:23.648Z,99.90
2023-03-26T19:23:45.650Z,99.90
2023-03-26T19:28:14.308Z,99.90
2023-03-26T19:32:34.963Z,99.90
2023-03-26T19:36:59.539Z,99.90
2023-03-26T19:41:23.381Z,99.90
2023-03-26T19:45:59.962Z,99.90
2023-03-26T19:50:26.950Z,99.90
2023-03-26T19:54:59.908Z,99.90
2023-03-26T19:59:22.600Z,99.90
2023-03-26T20:03:44.496Z,99.90
2023-03-26T20:08:17.456Z,99.90
2023-03-26T20:12:39.046Z,99.90
2023-03-26T20:16:56.805Z,99.90
2023-03-26T20:21:15.225Z,99.90
2023-03-26T20:25:35.878Z,99.90
2023-03-26T20:29:57.784Z,99.90
2023-03-26T20:34:18.672Z,99.90
2023-03-26T20:38:39.419Z,99.90
2023-03-26T20:42:57.214Z,99.90
2023-03-26T20:47:16.472Z,99.90
2023-03-26T20:51:38.110Z,99.90
2023-03-26T20:55:57.555Z,99.90
2023-03-26T21:00:19.303Z,99.90
2023-03-26T21:04:37.949Z,99.90
2023-03-26T21:09:17.623Z,99.90
2023-03-26T21:14:09.392Z,99.90
2023-03-26T21:18:30.159Z,99.90
2023-03-26T21:27:33.790Z,99.90
2023-03-26T21:31:53.995Z,99.90
2023-03-26T21:36:13.403Z,99.90
2023-03-26T21:40:35.472Z,99.90
2023-03-26T21:44:54.672Z,99.90
2023-03-26T21:49:13.488Z,99.90
2023-03-26T21:53:35.822Z,99.90
2023-03-26T21:58:23.115Z,99.90
2023-03-26T22:02:57.306Z,99.90
2023-03-26T22:07:20.904Z,99.90
2023-03-26T22:11:37.903Z,99.90
2023-03-26T22:15:57.662Z,99.90
2023-03-26T22:20:20.152Z,99.90
2023-03-26T22:24:40.654Z,99.90
2023-03-26T22:29:02.278Z,99.90
2023-03-26T22:33:22.606Z,99.90
2023-03-26T22:37:42.080Z,99.90
2023-03-26T22:42:02.152Z,99.90
2023-03-26T22:46:21.217Z,99.90
2023-03-26T22:50:41.149Z,99.90
2023-03-26T22:55:00.041Z,99.90
2023-03-26T22:59:18.735Z,99.90
2023-03-26T23:03:36.926Z,99.90
2023-03-26T23:07:56.005Z,99.90
2023-03-26T23:12:15.656Z,99.90
2023-03-26T23:16:33.330Z,99.90
2023-03-26T23:20:52.897Z,99.90
2023-03-26T23:25:14.216Z,99.90
2023-03-26T23:29:34.385Z,99.90
2023-03-26T23:33:51.779Z,99.90
2023-03-26T23:38:13.005Z,99.90
2023-03-26T23:42:34.562Z,99.90
2023-03-26T23:46:57.897Z,99.90
2023-03-26T23:51:18.340Z,99.90
2023-03-26T23:55:38.018Z,99.90
2023-03-26T23:59:57.293Z,99.90
